sensor_id;sensor_type;location;lat;lon;timestamp;temperature;humidity
2625;DHT22;1322;53.256;10.386;2022-07-05T00:00:42;17.80;99.90
2625;DHT22;1322;53.256;10.386;2022-07-05T00:03:08;17.70;99.90
2625;DHT22;1322;53.256;10.386;2022-07-05T00:05:34;17.70;99.90
2625;DHT22;1322;53.256;10.386;2022-07-05T00:08:00;17.70;99.90
2625;DHT22;1322;53.256;10.386;2022-07-05T00:10:25;17.70;99.90
2625;DHT22;1322;53.256;10.386;2022-07-05T00:12:51;17.70;99.90
2625;DHT22;1322;53.256;10.386;2022-07-05T00:15:16;17.70;99.90
2625;DHT22;1322;53.256;10.386;2022-07-05T00:17:42;17.70;99.90
2625;DHT22;1322;53.256;10.386;2022-07-05T00:20:09;17.70;99.90
2625;DHT22;1322;53.256;10.386;2022-07-05T00:22:34;17.70;99.90
2625;DHT22;1322;53.256;10.386;2022-07-05T00:25:00;17.70;99.90
2625;DHT22;1322;53.256;10.386;2022-07-05T00:27:25;17.70;99.90
2625;DHT22;1322;53.256;10.386;2022-07-05T00:29:51;17.60;99.90
2625;DHT22;1322;53.256;10.386;2022-07-05T00:32:17;17.60;99.90
2625;DHT22;1322;53.256;10.386;2022-07-05T00:34:42;17.60;99.90
2625;DHT22;1322;53.256;10.386;2022-07-05T00:37:08;17.50;99.90
2625;DHT22;1322;53.256;10.386;2022-07-05T00:39:33;17.50;99.90
2625;DHT22;1322;53.256;10.386;2022-07-05T00:42:00;17.50;99.90
2625;DHT22;1322;53.256;10.386;2022-07-05T00:44:44;17.50;99.90
2625;DHT22;1322;53.256;10.386;2022-07-05T00:47:11;17.40;99.90
2625;DHT22;1322;53.256;10.386;2022-07-05T00:49:38;17.40;99.90
2625;DHT22;1322;53.256;10.386;2022-07-05T00:52:05;17.40;99.90
2625;DHT22;1322;53.256;10.386;2022-07-05T00:54:35;17.30;99.90
2625;DHT22;1322;53.256;10.386;2022-07-05T00:57:02;17.20;99.90
2625;DHT22;1322;53.256;10.386;2022-07-05T00:59:29;17.20;99.90
2625;DHT22;1322;53.256;10.386;2022-07-05T01:01:55;17.10;99.90
2625;DHT22;1322;53.256;10.386;2022-07-05T01:04:21;17.10;99.90
2625;DHT22;1322;53.256;10.386;2022-07-05T01:06:49;17.00;99.90
2625;DHT22;1322;53.256;10.386;2022-07-05T01:09:16;17.00;99.90
2625;DHT22;1322;53.256;10.386;2022-07-05T01:11:48;17.00;99.90
2625;DHT22;1322;53.256;10.386;2022-07-05T01:14:17;16.90;99.90
2625;DHT22;1322;53.256;10.386;2022-07-05T01:16:43;16.90;99.90
2625;DHT22;1322;53.256;10.386;2022-07-05T01:19:12;16.90;99.90
2625;DHT22;1322;53.256;10.386;2022-07-05T01:21:41;16.80;99.90
2625;DHT22;1322;53.256;10.386;2022-07-05T01:24:12;16.80;99.90
2625;DHT22;1322;53.256;10.386;2022-07-05T01:26:40;16.70;99.90
2625;DHT22;1322;53.256;10.386;2022-07-05T01:29:06;16.70;99.90
2625;DHT22;1322;53.256;10.386;2022-07-05T01:31:32;16.70;99.90
2625;DHT22;1322;53.256;10.386;2022-07-05T01:33:58;16.60;99.90
2625;DHT22;1322;53.256;10.386;2022-07-05T01:36:24;16.60;99.90
2625;DHT22;1322;53.256;10.386;2022-07-05T01:38:50;16.60;99.90
2625;DHT22;1322;53.256;10.386;2022-07-05T01:41:16;16.60;99.90
2625;DHT22;1322;53.256;10.386;2022-07-05T01:43:42;16.50;99.90
2625;DHT22;1322;53.256;10.386;2022-07-05T01:46:08;16.50;99.90
2625;DHT22;1322;53.256;10.386;2022-07-05T01:48:35;16.40;99.90
2625;DHT22;1322;53.256;10.386;2022-07-05T01:51:10;16.40;99.90
2625;DHT22;1322;53.256;10.386;2022-07-05T01:53:39;16.40;99.90
2625;DHT22;1322;53.256;10.386;2022-07-05T01:56:06;16.40;99.90
2625;DHT22;1322;53.256;10.386;2022-07-05T01:58:32;16.30;99.90
2625;DHT22;1322;53.256;10.386;2022-07-05T02:00:58;16.30;99.90
2625;DHT22;1322;53.256;10.386;2022-07-05T02:03:24;16.30;99.90
2625;DHT22;1322;53.256;10.386;2022-07-05T02:05:50;16.30;99.90
2625;DHT22;1322;53.256;10.386;2022-07-05T02:08:18;16.30;99.90
2625;DHT22;1322;53.256;10.386;2022-07-05T02:10:44;16.20;99.90
2625;DHT22;1322;53.256;10.386;2022-07-05T02:13:10;16.10;99.90
2625;DHT22;1322;53.256;10.386;2022-07-05T02:15:38;16.10;99.90
2625;DHT22;1322;53.256;10.386;2022-07-05T02:18:05;16.00;99.90
2625;DHT22;1322;53.256;10.386;2022-07-05T02:20:32;16.00;99.90
2625;DHT22;1322;53.256;10.386;2022-07-05T02:22:59;16.00;99.90
2625;DHT22;1322;53.256;10.386;2022-07-05T02:25:25;15.90;99.90
2625;DHT22;1322;53.256;10.386;2022-07-05T02:27:51;15.90;99.90
2625;DHT22;1322;53.256;10.386;2022-07-05T02:30:18;15.90;99.90
2625;DHT22;1322;53.256;10.386;2022-07-05T02:32:44;15.90;99.90
2625;DHT22;1322;53.256;10.386;2022-07-05T02:35:10;15.90;99.90
2625;DHT22;1322;53.256;10.386;2022-07-05T02:37:36;15.80;99.90
2625;DHT22;1322;53.256;10.386;2022-07-05T02:40:03;15.80;99.90
2625;DHT22;1322;53.256;10.386;2022-07-05T02:42:28;15.80;99.90
2625;DHT22;1322;53.256;10.386;2022-07-05T02:44:54;15.80;99.90
2625;DHT22;1322;53.256;10.386;2022-07-05T02:47:19;15.80;99.90
2625;DHT22;1322;53.256;10.386;2022-07-05T02:49:45;15.80;99.90
2625;DHT22;1322;53.256;10.386;2022-07-05T02:52:11;15.80;99.90
2625;DHT22;1322;53.256;10.386;2022-07-05T02:54:36;15.80;99.90
2625;DHT22;1322;53.256;10.386;2022-07-05T02:57:02;15.80;99.90
2625;DHT22;1322;53.256;10.386;2022-07-05T02:59:28;15.80;99.90
2625;DHT22;1322;53.256;10.386;2022-07-05T03:01:56;15.80;99.90
2625;DHT22;1322;53.256;10.386;2022-07-05T03:04:21;15.70;99.90
2625;DHT22;1322;53.256;10.386;2022-07-05T03:06:47;15.70;99.90
2625;DHT22;1322;53.256;10.386;2022-07-05T03:09:13;15.70;99.90
2625;DHT22;1322;53.256;10.386;2022-07-05T03:11:38;15.70;99.90
2625;DHT22;1322;53.256;10.386;2022-07-05T03:14:04;15.70;99.90
2625;DHT22;1322;53.256;10.386;2022-07-05T03:16:29;15.70;99.90
2625;DHT22;1322;53.256;10.386;2022-07-05T03:18:55;15.70;99.90
2625;DHT22;1322;53.256;10.386;2022-07-05T03:21:21;15.70;99.90
2625;DHT22;1322;53.256;10.386;2022-07-05T03:23:47;15.70;99.90
2625;DHT22;1322;53.256;10.386;2022-07-05T03:26:12;15.70;99.90
2625;DHT22;1322;53.256;10.386;2022-07-05T03:28:38;15.80;99.90
2625;DHT22;1322;53.256;10.386;2022-07-05T03:31:04;15.80;99.90
2625;DHT22;1322;53.256;10.386;2022-07-05T03:33:29;15.80;99.90
2625;DHT22;1322;53.256;10.386;2022-07-05T03:35:55;15.90;99.90
2625;DHT22;1322;53.256;10.386;2022-07-05T03:38:20;15.90;99.90
2625;DHT22;1322;53.256;10.386;2022-07-05T03:40:46;15.90;99.90
2625;DHT22;1322;53.256;10.386;2022-07-05T03:43:12;15.90;99.90
2625;DHT22;1322;53.256;10.386;2022-07-05T03:45:37;15.90;99.90
2625;DHT22;1322;53.256;10.386;2022-07-05T03:48:03;16.00;99.90
2625;DHT22;1322;53.256;10.386;2022-07-05T03:50:29;16.20;99.90
2625;DHT22;1322;53.256;10.386;2022-07-05T03:52:54;16.40;99.90
2625;DHT22;1322;53.256;10.386;2022-07-05T03:55:20;16.70;99.90
2625;DHT22;1322;53.256;10.386;2022-07-05T03:57:46;16.90;99.90
2625;DHT22;1322;53.256;10.386;2022-07-05T04:00:13;17.10;99.90
2625;DHT22;1322;53.256;10.386;2022-07-05T04:02:39;17.30;99.90
2625;DHT22;1322;53.256;10.386;2022-07-05T04:05:05;17.50;99.90
2625;DHT22;1322;53.256;10.386;2022-07-05T04:07:31;17.60;99.90
2625;DHT22;1322;53.256;10.386;2022-07-05T04:09:57;17.80;99.90
2625;DHT22;1322;53.256;10.386;2022-07-05T04:12:22;17.90;99.90
2625;DHT22;1322;53.256;10.386;2022-07-05T04:14:48;18.10;99.90
2625;DHT22;1322;53.256;10.386;2022-07-05T04:17:13;18.20;99.90
2625;DHT22;1322;53.256;10.386;2022-07-05T04:19:39;18.40;99.90
2625;DHT22;1322;53.256;10.386;2022-07-05T04:22:05;18.60;99.90
2625;DHT22;1322;53.256;10.386;2022-07-05T04:24:30;18.80;99.90
2625;DHT22;1322;53.256;10.386;2022-07-05T04:26:56;18.90;99.90
2625;DHT22;1322;53.256;10.386;2022-07-05T04:29:22;19.00;99.90
2625;DHT22;1322;53.256;10.386;2022-07-05T04:31:48;19.20;99.90
2625;DHT22;1322;53.256;10.386;2022-07-05T04:34:13;19.30;99.90
2625;DHT22;1322;53.256;10.386;2022-07-05T04:36:39;19.50;99.90
2625;DHT22;1322;53.256;10.386;2022-07-05T04:39:06;19.60;99.90
2625;DHT22;1322;53.256;10.386;2022-07-05T04:41:32;19.80;99.90
2625;DHT22;1322;53.256;10.386;2022-07-05T04:43:58;20.00;99.90
2625;DHT22;1322;53.256;10.386;2022-07-05T04:46:24;20.20;99.90
2625;DHT22;1322;53.256;10.386;2022-07-05T04:48:49;20.40;99.90
2625;DHT22;1322;53.256;10.386;2022-07-05T04:51:15;20.50;99.90
2625;DHT22;1322;53.256;10.386;2022-07-05T04:53:41;20.60;99.90
2625;DHT22;1322;53.256;10.386;2022-07-05T04:56:07;20.70;99.90
2625;DHT22;1322;53.256;10.386;2022-07-05T04:58:32;21.00;99.90
2625;DHT22;1322;53.256;10.386;2022-07-05T05:00:58;21.20;99.90
2625;DHT22;1322;53.256;10.386;2022-07-05T05:03:24;21.30;99.90
2625;DHT22;1322;53.256;10.386;2022-07-05T05:05:50;21.50;99.90
2625;DHT22;1322;53.256;10.386;2022-07-05T05:08:16;21.50;99.90
2625;DHT22;1322;53.256;10.386;2022-07-05T05:10:42;21.60;99.90
2625;DHT22;1322;53.256;10.386;2022-07-05T05:13:07;21.70;99.90
2625;DHT22;1322;53.256;10.386;2022-07-05T05:15:33;21.80;99.90
2625;DHT22;1322;53.256;10.386;2022-07-05T05:17:58;21.90;99.90
2625;DHT22;1322;53.256;10.386;2022-07-05T07:41:57;24.80;99.90
2625;DHT22;1322;53.256;10.386;2022-07-05T07:44:23;24.80;99.90
2625;DHT22;1322;53.256;10.386;2022-07-05T07:46:48;24.70;99.90
2625;DHT22;1322;53.256;10.386;2022-07-05T07:49:14;24.90;99.90
2625;DHT22;1322;53.256;10.386;2022-07-05T07:51:40;24.90;99.90
2625;DHT22;1322;53.256;10.386;2022-07-05T07:54:06;24.70;99.90
2625;DHT22;1322;53.256;10.386;2022-07-05T07:56:32;24.40;99.90
2625;DHT22;1322;53.256;10.386;2022-07-05T07:58:58;24.30;99.90
2625;DHT22;1322;53.256;10.386;2022-07-05T08:01:23;24.60;99.90
2625;DHT22;1322;53.256;10.386;2022-07-05T08:03:49;24.90;99.90
2625;DHT22;1322;53.256;10.386;2022-07-05T08:06:15;25.20;99.90
2625;DHT22;1322;53.256;10.386;2022-07-05T08:08:42;25.40;99.90
2625;DHT22;1322;53.256;10.386;2022-07-05T08:11:10;25.10;99.90
2625;DHT22;1322;53.256;10.386;2022-07-05T08:13:36;25.00;99.90
2625;DHT22;1322;53.256;10.386;2022-07-05T08:16:03;24.80;99.90
2625;DHT22;1322;53.256;10.386;2022-07-05T08:18:28;24.90;99.90
2625;DHT22;1322;53.256;10.386;2022-07-05T08:21:13;25.20;99.90
2625;DHT22;1322;53.256;10.386;2022-07-05T08:23:58;25.40;99.90
2625;DHT22;1322;53.256;10.386;2022-07-05T08:26:25;25.30;99.90
2625;DHT22;1322;53.256;10.386;2022-07-05T08:28:51;24.80;99.90
2625;DHT22;1322;53.256;10.386;2022-07-05T08:31:17;24.40;99.90
2625;DHT22;1322;53.256;10.386;2022-07-05T08:33:42;24.00;99.90
2625;DHT22;1322;53.256;10.386;2022-07-05T08:36:08;24.10;99.90
2625;DHT22;1322;53.256;10.386;2022-07-05T08:38:34;24.20;99.90
2625;DHT22;1322;53.256;10.386;2022-07-05T08:41:00;24.50;99.90
2625;DHT22;1322;53.256;10.386;2022-07-05T08:43:28;25.00;99.90
2625;DHT22;1322;53.256;10.386;2022-07-05T08:45:55;25.40;99.90
2625;DHT22;1322;53.256;10.386;2022-07-05T08:48:24;25.30;99.90
2625;DHT22;1322;53.256;10.386;2022-07-05T08:50:51;25.00;99.90
2625;DHT22;1322;53.256;10.386;2022-07-05T08:53:21;24.40;99.90
2625;DHT22;1322;53.256;10.386;2022-07-05T08:55:47;24.30;99.90
2625;DHT22;1322;53.256;10.386;2022-07-05T08:58:13;24.20;99.90
2625;DHT22;1322;53.256;10.386;2022-07-05T09:00:39;24.30;99.90
2625;DHT22;1322;53.256;10.386;2022-07-05T09:03:07;24.50;99.90
2625;DHT22;1322;53.256;10.386;2022-07-05T09:05:41;24.80;99.90
2625;DHT22;1322;53.256;10.386;2022-07-05T09:08:09;25.20;99.90
2625;DHT22;1322;53.256;10.386;2022-07-05T09:10:37;25.40;99.90
2625;DHT22;1322;53.256;10.386;2022-07-05T09:13:03;25.50;99.90
2625;DHT22;1322;53.256;10.386;2022-07-05T09:15:29;25.30;99.90
2625;DHT22;1322;53.256;10.386;2022-07-05T09:17:55;24.90;99.90
2625;DHT22;1322;53.256;10.386;2022-07-05T09:20:21;25.00;99.90
2625;DHT22;1322;53.256;10.386;2022-07-05T09:28:03;25.50;99.90
2625;DHT22;1322;53.256;10.386;2022-07-05T09:30:39;25.80;99.90
2625;DHT22;1322;53.256;10.386;2022-07-05T09:33:12;25.90;99.90
2625;DHT22;1322;53.256;10.386;2022-07-05T09:35:50;25.90;99.90
2625;DHT22;1322;53.256;10.386;2022-07-05T09:38:21;25.80;99.90
2625;DHT22;1322;53.256;10.386;2022-07-05T09:40:49;25.70;99.90
2625;DHT22;1322;53.256;10.386;2022-07-05T09:43:22;25.60;99.90
2625;DHT22;1322;53.256;10.386;2022-07-05T09:46:02;25.20;99.90
2625;DHT22;1322;53.256;10.386;2022-07-05T09:48:33;24.80;99.90
2625;DHT22;1322;53.256;10.386;2022-07-05T09:51:13;24.60;99.90
2625;DHT22;1322;53.256;10.386;2022-07-05T09:53:49;24.70;99.90
2625;DHT22;1322;53.256;10.386;2022-07-05T09:56:15;25.10;99.90
2625;DHT22;1322;53.256;10.386;2022-07-05T09:58:41;25.50;99.90
2625;DHT22;1322;53.256;10.386;2022-07-05T10:01:29;25.90;99.90
2625;DHT22;1322;53.256;10.386;2022-07-05T10:03:57;26.40;99.90
2625;DHT22;1322;53.256;10.386;2022-07-05T10:06:25;26.80;99.90
2625;DHT22;1322;53.256;10.386;2022-07-05T10:08:52;26.90;99.90
2625;DHT22;1322;53.256;10.386;2022-07-05T10:11:22;26.90;99.90
2625;DHT22;1322;53.256;10.386;2022-07-05T10:13:51;26.70;99.90
2625;DHT22;1322;53.256;10.386;2022-07-05T10:16:18;26.00;99.90
2625;DHT22;1322;53.256;10.386;2022-07-05T10:18:46;25.40;99.90
2625;DHT22;1322;53.256;10.386;2022-07-05T10:21:16;25.10;99.90
2625;DHT22;1322;53.256;10.386;2022-07-05T10:23:47;24.70;99.90
2625;DHT22;1322;53.256;10.386;2022-07-05T10:26:14;24.60;99.90
2625;DHT22;1322;53.256;10.386;2022-07-05T10:28:41;24.40;99.90
2625;DHT22;1322;53.256;10.386;2022-07-05T10:31:10;24.40;99.90
2625;DHT22;1322;53.256;10.386;2022-07-05T10:33:36;24.30;99.90
2625;DHT22;1322;53.256;10.386;2022-07-05T10:36:04;24.30;99.90
2625;DHT22;1322;53.256;10.386;2022-07-05T10:38:34;24.60;99.90
2625;DHT22;1322;53.256;10.386;2022-07-05T10:41:03;24.90;99.90
2625;DHT22;1322;53.256;10.386;2022-07-05T10:43:30;25.10;99.90
2625;DHT22;1322;53.256;10.386;2022-07-05T10:45:56;25.20;99.90
2625;DHT22;1322;53.256;10.386;2022-07-05T10:48:23;25.30;99.90
2625;DHT22;1322;53.256;10.386;2022-07-05T10:58:35;24.90;99.90
2625;DHT22;1322;53.256;10.386;2022-07-05T11:03:52;25.10;99.90
2625;DHT22;1322;53.256;10.386;2022-07-05T11:11:38;25.50;99.90
2625;DHT22;1322;53.256;10.386;2022-07-05T11:17:10;25.60;99.90
2625;DHT22;1322;53.256;10.386;2022-07-05T11:20:04;25.60;99.90
2625;DHT22;1322;53.256;10.386;2022-07-05T11:22:30;25.50;99.90
2625;DHT22;1322;53.256;10.386;2022-07-05T11:24:57;25.60;99.90
2625;DHT22;1322;53.256;10.386;2022-07-05T11:27:23;25.60;99.90
2625;DHT22;1322;53.256;10.386;2022-07-05T11:29:53;25.80;99.90
2625;DHT22;1322;53.256;10.386;2022-07-05T11:34:51;25.40;99.90
2625;DHT22;1322;53.256;10.386;2022-07-05T11:42:41;24.70;99.90
2625;DHT22;1322;53.256;10.386;2022-07-05T11:45:10;24.50;99.90
2625;DHT22;1322;53.256;10.386;2022-07-05T11:47:36;24.40;99.90
2625;DHT22;1322;53.256;10.386;2022-07-05T11:50:02;24.60;99.90
2625;DHT22;1322;53.256;10.386;2022-07-05T11:52:30;25.00;99.90
2625;DHT22;1322;53.256;10.386;2022-07-05T11:54:56;25.30;99.90
2625;DHT22;1322;53.256;10.386;2022-07-05T11:57:23;25.50;99.90
2625;DHT22;1322;53.256;10.386;2022-07-05T11:59:49;25.60;99.90
2625;DHT22;1322;53.256;10.386;2022-07-05T12:02:15;25.70;99.90
2625;DHT22;1322;53.256;10.386;2022-07-05T12:04:40;25.90;99.90
2625;DHT22;1322;53.256;10.386;2022-07-05T12:07:11;26.00;99.90
2625;DHT22;1322;53.256;10.386;2022-07-05T12:09:37;26.30;99.90
2625;DHT22;1322;53.256;10.386;2022-07-05T12:12:29;26.30;99.90
2625;DHT22;1322;53.256;10.386;2022-07-05T12:15:14;26.20;99.90
2625;DHT22;1322;53.256;10.386;2022-07-05T12:17:46;26.30;99.90
2625;DHT22;1322;53.256;10.386;2022-07-05T12:20:14;26.50;99.90
2625;DHT22;1322;53.256;10.386;2022-07-05T12:22:43;26.40;99.80
2625;DHT22;1322;53.256;10.386;2022-07-05T12:25:12;26.30;99.50
2625;DHT22;1322;53.256;10.386;2022-07-05T12:27:40;26.20;99.90
2625;DHT22;1322;53.256;10.386;2022-07-05T12:30:07;26.00;99.50
2625;DHT22;1322;53.256;10.386;2022-07-05T12:35:31;25.60;99.80
2625;DHT22;1322;53.256;10.386;2022-07-05T12:38:06;25.70;99.90
2625;DHT22;1322;53.256;10.386;2022-07-05T12:40:33;25.90;99.40
2625;DHT22;1322;53.256;10.386;2022-07-05T12:43:18;25.90;99.10
2625;DHT22;1322;53.256;10.386;2022-07-05T12:48:30;25.90;99.90
2625;DHT22;1322;53.256;10.386;2022-07-05T12:50:57;26.00;99.90
2625;DHT22;1322;53.256;10.386;2022-07-05T12:53:23;25.90;99.10
2625;DHT22;1322;53.256;10.386;2022-07-05T12:56:09;25.80;99.70
2625;DHT22;1322;53.256;10.386;2022-07-05T12:59:04;25.90;99.90
2625;DHT22;1322;53.256;10.386;2022-07-05T13:01:31;26.10;99.90
2625;DHT22;1322;53.256;10.386;2022-07-05T13:04:18;26.10;99.90
2625;DHT22;1322;53.256;10.386;2022-07-05T13:09:15;25.90;99.90
2625;DHT22;1322;53.256;10.386;2022-07-05T13:11:42;25.80;99.90
2625;DHT22;1322;53.256;10.386;2022-07-05T13:14:10;25.90;99.90
2625;DHT22;1322;53.256;10.386;2022-07-05T13:16:36;25.80;99.40
2625;DHT22;1322;53.256;10.386;2022-07-05T13:19:17;25.80;99.60
2625;DHT22;1322;53.256;10.386;2022-07-05T13:21:45;25.80;99.90
2625;DHT22;1322;53.256;10.386;2022-07-05T13:24:13;26.00;99.90
2625;DHT22;1322;53.256;10.386;2022-07-05T13:26:39;25.90;99.70
2625;DHT22;1322;53.256;10.386;2022-07-05T13:29:07;26.00;99.40
2625;DHT22;1322;53.256;10.386;2022-07-05T13:31:35;26.30;99.90
2625;DHT22;1322;53.256;10.386;2022-07-05T13:34:01;26.40;99.60
2625;DHT22;1322;53.256;10.386;2022-07-05T13:36:27;26.30;99.40
2625;DHT22;1322;53.256;10.386;2022-07-05T13:38:53;26.20;99.70
2625;DHT22;1322;53.256;10.386;2022-07-05T13:41:24;26.00;99.60
2625;DHT22;1322;53.256;10.386;2022-07-05T13:43:50;25.80;99.00
2625;DHT22;1322;53.256;10.386;2022-07-05T13:46:18;25.70;99.70
2625;DHT22;1322;53.256;10.386;2022-07-05T13:48:44;25.50;98.90
2625;DHT22;1322;53.256;10.386;2022-07-05T13:51:10;25.20;99.30
2625;DHT22;1322;53.256;10.386;2022-07-05T13:53:35;25.20;99.90
2625;DHT22;1322;53.256;10.386;2022-07-05T13:56:05;25.20;99.60
2625;DHT22;1322;53.256;10.386;2022-07-05T13:58:32;25.20;99.60
2625;DHT22;1322;53.256;10.386;2022-07-05T14:00:58;25.20;99.40
2625;DHT22;1322;53.256;10.386;2022-07-05T14:03:24;25.10;99.40
2625;DHT22;1322;53.256;10.386;2022-07-05T14:05:49;24.90;99.80
2625;DHT22;1322;53.256;10.386;2022-07-05T14:08:18;24.90;99.90
2625;DHT22;1322;53.256;10.386;2022-07-05T14:10:50;24.90;99.90
2625;DHT22;1322;53.256;10.386;2022-07-05T14:13:18;24.80;99.90
2625;DHT22;1322;53.256;10.386;2022-07-05T14:15:44;24.80;99.90
2625;DHT22;1322;53.256;10.386;2022-07-05T14:18:11;24.90;99.90
2625;DHT22;1322;53.256;10.386;2022-07-05T14:20:37;24.90;99.70
2625;DHT22;1322;53.256;10.386;2022-07-05T14:23:03;24.90;99.90
2625;DHT22;1322;53.256;10.386;2022-07-05T14:25:29;25.00;99.90
2625;DHT22;1322;53.256;10.386;2022-07-05T14:27:55;25.20;99.90
2625;DHT22;1322;53.256;10.386;2022-07-05T14:30:20;25.40;99.90
2625;DHT22;1322;53.256;10.386;2022-07-05T14:32:48;25.60;99.60
2625;DHT22;1322;53.256;10.386;2022-07-05T14:35:15;25.60;99.30
2625;DHT22;1322;53.256;10.386;2022-07-05T14:37:40;25.70;99.80
2625;DHT22;1322;53.256;10.386;2022-07-05T14:40:06;25.80;99.70
2625;DHT22;1322;53.256;10.386;2022-07-05T14:42:33;25.70;99.90
2625;DHT22;1322;53.256;10.386;2022-07-05T14:44:59;25.70;99.90
2625;DHT22;1322;53.256;10.386;2022-07-05T14:47:24;25.60;99.80
2625;DHT22;1322;53.256;10.386;2022-07-05T14:49:52;25.20;99.90
2625;DHT22;1322;53.256;10.386;2022-07-05T14:52:19;25.00;99.90
2625;DHT22;1322;53.256;10.386;2022-07-05T14:54:44;25.00;99.90
2625;DHT22;1322;53.256;10.386;2022-07-05T14:57:10;24.70;99.90
2625;DHT22;1322;53.256;10.386;2022-07-05T14:59:36;24.60;99.90
2625;DHT22;1322;53.256;10.386;2022-07-05T15:02:01;24.60;99.90
2625;DHT22;1322;53.256;10.386;2022-07-05T15:04:28;24.70;99.90
2625;DHT22;1322;53.256;10.386;2022-07-05T15:06:54;24.70;99.90
2625;DHT22;1322;53.256;10.386;2022-07-05T15:09:19;24.70;99.90
2625;DHT22;1322;53.256;10.386;2022-07-05T15:11:46;24.70;99.90
2625;DHT22;1322;53.256;10.386;2022-07-05T15:14:11;24.70;99.90
2625;DHT22;1322;53.256;10.386;2022-07-05T15:16:37;24.70;99.90
2625;DHT22;1322;53.256;10.386;2022-07-05T15:19:02;24.60;99.90
2625;DHT22;1322;53.256;10.386;2022-07-05T15:21:28;24.50;99.90
2625;DHT22;1322;53.256;10.386;2022-07-05T15:23:54;24.50;99.90
2625;DHT22;1322;53.256;10.386;2022-07-05T15:26:21;24.40;99.90
2625;DHT22;1322;53.256;10.386;2022-07-05T15:28:47;24.20;99.90
2625;DHT22;1322;53.256;10.386;2022-07-05T15:31:12;24.10;99.90
2625;DHT22;1322;53.256;10.386;2022-07-05T15:33:38;23.90;99.90
2625;DHT22;1322;53.256;10.386;2022-07-05T15:36:04;23.80;99.90
2625;DHT22;1322;53.256;10.386;2022-07-05T15:38:29;23.60;99.90
2625;DHT22;1322;53.256;10.386;2022-07-05T15:40:56;23.30;99.90
2625;DHT22;1322;53.256;10.386;2022-07-05T15:43:22;23.30;99.90
2625;DHT22;1322;53.256;10.386;2022-07-05T15:45:53;23.50;99.90
2625;DHT22;1322;53.256;10.386;2022-07-05T15:48:19;23.80;99.90
2625;DHT22;1322;53.256;10.386;2022-07-05T15:50:45;23.90;99.90
2625;DHT22;1322;53.256;10.386;2022-07-05T15:53:10;23.80;99.90
2625;DHT22;1322;53.256;10.386;2022-07-05T15:55:36;23.50;99.90
2625;DHT22;1322;53.256;10.386;2022-07-05T15:58:01;23.30;99.90
2625;DHT22;1322;53.256;10.386;2022-07-05T16:00:27;23.00;99.90
2625;DHT22;1322;53.256;10.386;2022-07-05T16:02:53;22.70;99.90
2625;DHT22;1322;53.256;10.386;2022-07-05T16:05:18;22.60;99.90
2625;DHT22;1322;53.256;10.386;2022-07-05T16:07:44;22.60;99.90
2625;DHT22;1322;53.256;10.386;2022-07-05T16:10:09;22.70;99.90
2625;DHT22;1322;53.256;10.386;2022-07-05T16:12:35;22.80;99.90
2625;DHT22;1322;53.256;10.386;2022-07-05T16:15:01;22.90;99.90
2625;DHT22;1322;53.256;10.386;2022-07-05T16:17:27;22.90;99.90
2625;DHT22;1322;53.256;10.386;2022-07-05T16:19:52;22.90;99.90
2625;DHT22;1322;53.256;10.386;2022-07-05T16:22:19;22.80;99.90
2625;DHT22;1322;53.256;10.386;2022-07-05T16:24:44;22.80;99.90
2625;DHT22;1322;53.256;10.386;2022-07-05T16:27:12;22.80;99.90
2625;DHT22;1322;53.256;10.386;2022-07-05T16:29:39;22.70;99.90
2625;DHT22;1322;53.256;10.386;2022-07-05T16:32:05;22.70;99.90
2625;DHT22;1322;53.256;10.386;2022-07-05T16:34:31;22.90;99.90
2625;DHT22;1322;53.256;10.386;2022-07-05T16:36:56;23.00;99.90
2625;DHT22;1322;53.256;10.386;2022-07-05T16:39:22;23.20;99.90
2625;DHT22;1322;53.256;10.386;2022-07-05T16:41:48;23.20;99.90
2625;DHT22;1322;53.256;10.386;2022-07-05T16:44:14;23.10;99.90
2625;DHT22;1322;53.256;10.386;2022-07-05T16:46:39;22.80;99.90
2625;DHT22;1322;53.256;10.386;2022-07-05T16:49:05;22.70;99.90
2625;DHT22;1322;53.256;10.386;2022-07-05T16:51:31;22.60;99.90
2625;DHT22;1322;53.256;10.386;2022-07-05T16:53:57;22.60;99.90
2625;DHT22;1322;53.256;10.386;2022-07-05T16:56:24;22.40;99.90
2625;DHT22;1322;53.256;10.386;2022-07-05T16:58:51;22.30;99.90
2625;DHT22;1322;53.256;10.386;2022-07-05T17:01:19;22.10;99.90
2625;DHT22;1322;53.256;10.386;2022-07-05T17:03:47;22.00;99.90
2625;DHT22;1322;53.256;10.386;2022-07-05T17:06:13;21.90;99.90
2625;DHT22;1322;53.256;10.386;2022-07-05T17:08:40;21.70;99.90
2625;DHT22;1322;53.256;10.386;2022-07-05T17:11:11;21.70;99.90
2625;DHT22;1322;53.256;10.386;2022-07-05T17:13:44;21.60;99.90
2625;DHT22;1322;53.256;10.386;2022-07-05T17:16:12;21.50;99.90
2625;DHT22;1322;53.256;10.386;2022-07-05T17:18:39;21.50;99.90
2625;DHT22;1322;53.256;10.386;2022-07-05T17:21:06;21.60;99.90
2625;DHT22;1322;53.256;10.386;2022-07-05T17:23:33;21.70;99.90
2625;DHT22;1322;53.256;10.386;2022-07-05T17:26:01;21.90;99.90
2625;DHT22;1322;53.256;10.386;2022-07-05T17:28:27;22.10;99.90
2625;DHT22;1322;53.256;10.386;2022-07-05T17:30:52;22.20;99.90
2625;DHT22;1322;53.256;10.386;2022-07-05T17:33:18;22.10;99.90
2625;DHT22;1322;53.256;10.386;2022-07-05T17:35:44;21.90;99.90
2625;DHT22;1322;53.256;10.386;2022-07-05T17:38:09;21.90;99.90
2625;DHT22;1322;53.256;10.386;2022-07-05T17:40:35;21.70;99.90
2625;DHT22;1322;53.256;10.386;2022-07-05T17:43:00;21.60;99.90
2625;DHT22;1322;53.256;10.386;2022-07-05T17:45:26;21.40;99.90
2625;DHT22;1322;53.256;10.386;2022-07-05T17:47:51;21.30;99.90
2625;DHT22;1322;53.256;10.386;2022-07-05T17:50:17;21.20;99.90
2625;DHT22;1322;53.256;10.386;2022-07-05T17:52:43;21.40;99.90
2625;DHT22;1322;53.256;10.386;2022-07-05T17:55:08;21.40;99.90
2625;DHT22;1322;53.256;10.386;2022-07-05T17:57:34;21.50;99.90
2625;DHT22;1322;53.256;10.386;2022-07-05T18:00:00;21.40;99.90
2625;DHT22;1322;53.256;10.386;2022-07-05T18:02:26;21.30;99.90
2625;DHT22;1322;53.256;10.386;2022-07-05T18:04:51;21.30;99.90
2625;DHT22;1322;53.256;10.386;2022-07-05T18:07:18;21.20;99.90
2625;DHT22;1322;53.256;10.386;2022-07-05T18:09:43;21.10;99.90
2625;DHT22;1322;53.256;10.386;2022-07-05T18:12:10;21.00;99.90
2625;DHT22;1322;53.256;10.386;2022-07-05T18:14:35;20.90;99.90
2625;DHT22;1322;53.256;10.386;2022-07-05T18:17:01;20.90;99.90
2625;DHT22;1322;53.256;10.386;2022-07-05T18:19:27;20.80;99.90
2625;DHT22;1322;53.256;10.386;2022-07-05T18:21:52;20.80;99.90
2625;DHT22;1322;53.256;10.386;2022-07-05T18:24:18;20.70;99.90
2625;DHT22;1322;53.256;10.386;2022-07-05T18:26:44;20.70;99.90
2625;DHT22;1322;53.256;10.386;2022-07-05T18:29:09;20.70;99.90
2625;DHT22;1322;53.256;10.386;2022-07-05T18:31:35;20.70;99.90
2625;DHT22;1322;53.256;10.386;2022-07-05T18:34:01;20.70;99.90
2625;DHT22;1322;53.256;10.386;2022-07-05T18:36:26;20.70;99.90
2625;DHT22;1322;53.256;10.386;2022-07-05T18:38:52;20.70;99.90
2625;DHT22;1322;53.256;10.386;2022-07-05T18:41:18;20.70;99.90
2625;DHT22;1322;53.256;10.386;2022-07-05T18:43:44;20.70;99.90
2625;DHT22;1322;53.256;10.386;2022-07-05T18:46:09;20.70;99.90